createdAt,value
2018-02-21T00:01:25.782Z,0.80
2018-02-21T00:03:53.363Z,0.80
2018-02-21T00:06:20.924Z,0.70
2018-02-21T00:08:48.582Z,0.50
2018-02-21T00:11:16.149Z,0.60
2018-02-21T00:13:43.907Z,0.60
2018-02-21T00:16:11.589Z,0.60
2018-02-21T00:18:39.193Z,0.60
2018-02-21T00:21:06.802Z,0.60
2018-02-21T00:23:34.436Z,0.70
2018-02-21T00:26:02.133Z,0.60
2018-02-21T00:28:29.747Z,0.50
2018-02-21T00:30:58.894Z,0.40
2018-02-21T00:33:26.642Z,0.40
2018-02-21T00:35:54.215Z,0.40
2018-02-21T00:38:21.847Z,0.40
2018-02-21T00:40:49.409Z,0.30
2018-02-21T00:43:16.975Z,0.30
2018-02-21T00:45:44.548Z,0.10
2018-02-21T00:48:12.457Z,0.00
2018-02-21T00:50:40.233Z,-0.10
2018-02-21T00:53:07.837Z,-0.10
2018-02-21T00:55:35.381Z,0.00
2018-02-21T00:58:02.935Z,0.10
2018-02-21T01:00:31.323Z,0.00
2018-02-21T01:02:58.916Z,0.00
2018-02-21T01:05:26.513Z,-0.20
2018-02-21T01:07:54.116Z,-0.20
2018-02-21T01:10:21.694Z,-0.10
2018-02-21T01:12:49.284Z,-0.10
2018-02-21T01:15:16.875Z,-0.20
2018-02-21T01:17:44.501Z,-0.20
2018-02-21T01:20:12.069Z,-0.10
2018-02-21T01:22:39.687Z,-0.20
2018-02-21T01:25:07.266Z,-0.10
2018-02-21T01:27:34.862Z,0.00
2018-02-21T01:30:03.245Z,-0.10
2018-02-21T01:32:30.844Z,-0.10
2018-02-21T01:34:58.458Z,-0.10
2018-02-21T01:37:26.023Z,-0.20
2018-02-21T01:39:53.722Z,-0.10
2018-02-21T01:42:21.530Z,-0.30
2018-02-21T01:44:49.293Z,-0.30
2018-02-21T01:47:16.958Z,-0.40
2018-02-21T01:49:44.553Z,-0.40
2018-02-21T01:52:12.178Z,-0.40
2018-02-21T01:54:39.820Z,-0.40
2018-02-21T01:57:07.477Z,-0.30
2018-02-21T01:59:35.066Z,-0.30
2018-02-21T02:02:02.638Z,-0.20
2018-02-21T02:04:30.202Z,-0.20
2018-02-21T02:06:57.781Z,-0.10
2018-02-21T02:09:25.462Z,-0.10
2018-02-21T02:11:53.088Z,0.00
2018-02-21T02:14:22.182Z,-0.30
2018-02-21T02:16:49.925Z,-0.30
2018-02-21T02:19:17.565Z,-0.30
2018-02-21T02:21:45.197Z,-0.30
2018-02-21T02:24:12.893Z,-0.30
2018-02-21T02:26:40.482Z,-0.50
2018-02-21T02:29:08.049Z,-0.40
2018-02-21T02:31:35.888Z,-0.40
2018-02-21T02:34:03.485Z,-0.40
2018-02-21T02:36:31.151Z,-0.50
2018-02-21T02:39:10.483Z,-0.50
2018-02-21T02:41:38.246Z,-0.50
2018-02-21T02:44:05.818Z,-0.50
2018-02-21T02:46:33.567Z,-0.60
2018-02-21T02:49:01.322Z,-0.60
2018-02-21T02:51:28.888Z,-0.70
2018-02-21T02:53:56.516Z,-0.60
2018-02-21T02:56:24.117Z,-0.50
2018-02-21T02:58:51.880Z,-0.50
2018-02-21T03:01:19.710Z,-0.50
2018-02-21T03:03:47.331Z,-0.40
2018-02-21T03:06:14.938Z,-0.40
2018-02-21T03:08:42.543Z,-0.40
2018-02-21T03:11:10.897Z,-0.40
2018-02-21T03:13:38.469Z,-0.40
2018-02-21T03:16:06.044Z,-0.30
2018-02-21T03:18:33.683Z,-0.20
2018-02-21T03:21:01.418Z,-0.20
2018-02-21T03:23:28.981Z,-0.20
2018-02-21T03:25:56.688Z,-0.20
2018-02-21T03:28:24.284Z,-0.30
2018-02-21T03:30:51.865Z,-0.50
2018-02-21T03:33:19.422Z,-0.50
2018-02-21T03:35:46.992Z,-0.60
2018-02-21T03:38:14.586Z,-0.60
2018-02-21T03:40:42.231Z,-0.70
2018-02-21T03:43:10.060Z,-0.70
2018-02-21T03:45:37.862Z,-0.60
2018-02-21T03:48:05.582Z,-0.60
2018-02-21T03:50:33.282Z,-0.50
2018-02-21T03:53:00.954Z,-0.50
2018-02-21T03:55:28.692Z,-0.60
2018-02-21T03:57:56.356Z,-0.60
2018-02-21T04:00:23.921Z,-0.50
2018-02-21T04:02:51.521Z,-0.40
2018-02-21T04:05:19.105Z,-0.40
2018-02-21T04:07:46.675Z,-0.40
2018-02-21T04:10:14.247Z,-0.50
2018-02-21T04:12:41.837Z,-0.50
2018-02-21T04:15:09.406Z,-0.40
2018-02-21T04:17:36.986Z,-0.30
2018-02-21T04:20:04.624Z,-0.30
2018-02-21T04:22:32.189Z,-0.30
2018-02-21T04:24:59.876Z,-0.30
2018-02-21T04:27:28.207Z,-0.30
2018-02-21T04:29:55.881Z,-0.40
2018-02-21T04:32:23.488Z,-0.40
2018-02-21T04:34:51.951Z,-0.50
2018-02-21T04:37:19.538Z,-0.50
2018-02-21T04:39:47.153Z,-0.50
2018-02-21T04:42:14.755Z,-0.50
2018-02-21T04:44:43.137Z,-0.50
2018-02-21T04:47:10.717Z,-0.50
2018-02-21T04:49:38.367Z,-0.50
2018-02-21T04:52:06.780Z,-0.40
2018-02-21T04:54:40.109Z,-0.50
2018-02-21T04:57:13.364Z,-0.40
2018-02-21T04:59:40.934Z,-0.40
2018-02-21T05:02:19.180Z,-0.40
2018-02-21T05:04:46.750Z,-0.40
2018-02-21T05:07:14.459Z,-0.60
2018-02-21T05:09:42.027Z,-0.60
2018-02-21T05:12:09.606Z,-0.50
2018-02-21T05:14:37.166Z,-0.50
2018-02-21T05:17:04.760Z,-0.50
2018-02-21T05:19:33.103Z,-0.50
2018-02-21T05:22:00.775Z,-0.50
2018-02-21T05:24:28.571Z,-0.60
2018-02-21T05:26:56.988Z,-0.70
2018-02-21T05:29:24.653Z,-0.70
2018-02-21T05:31:52.249Z,-0.60
2018-02-21T05:34:19.980Z,-0.70
2018-02-21T05:36:47.549Z,-0.80
2018-02-21T05:39:15.504Z,-0.90
2018-02-21T05:41:43.064Z,-1.00
2018-02-21T05:44:10.646Z,-0.90
2018-02-21T05:46:38.328Z,-1.00
2018-02-21T05:49:06.183Z,-0.90
2018-02-21T05:51:33.750Z,-0.90
2018-02-21T05:54:01.501Z,-1.10
2018-02-21T05:56:29.285Z,-1.10
2018-02-21T05:58:56.908Z,-1.10
2018-02-21T06:01:24.523Z,-1.00
2018-02-21T06:03:52.268Z,-0.90
2018-02-21T06:06:19.832Z,-0.90
2018-02-21T06:08:47.478Z,-0.90
2018-02-21T06:11:15.178Z,-1.00
2018-02-21T06:13:42.800Z,-1.10
2018-02-21T06:16:10.395Z,-1.00
2018-02-21T06:18:38.016Z,-1.10
2018-02-21T06:21:05.589Z,-1.10
2018-02-21T06:23:33.165Z,-1.10
2018-02-21T06:26:00.741Z,-1.00
2018-02-21T06:28:30.076Z,-1.00
2018-02-21T06:30:57.654Z,-1.00
2018-02-21T06:33:25.235Z,-1.00
2018-02-21T06:35:52.854Z,-1.00
2018-02-21T06:38:20.465Z,-0.90
2018-02-21T06:40:48.022Z,-0.90
2018-02-21T06:43:15.812Z,-0.70
2018-02-21T06:45:44.483Z,-0.50
2018-02-21T06:48:12.073Z,-0.50
2018-02-21T06:50:40.409Z,-0.40
2018-02-21T06:53:07.976Z,-0.40
2018-02-21T06:55:35.619Z,-0.40
2018-02-21T06:58:03.195Z,-0.40
2018-02-21T07:00:32.924Z,-0.30
2018-02-21T07:03:00.533Z,-0.10
2018-02-21T07:05:28.230Z,-0.10
2018-02-21T07:07:55.838Z,-0.20
2018-02-21T07:10:23.465Z,-0.20
2018-02-21T07:12:54.057Z,-0.10
2018-02-21T07:15:21.629Z,0.00
2018-02-21T07:17:49.237Z,0.20
2018-02-21T07:20:17.577Z,0.20
2018-02-21T07:22:45.165Z,0.20
2018-02-21T07:25:12.744Z,0.30
2018-02-21T07:27:40.341Z,0.40
2018-02-21T07:30:07.921Z,0.40
2018-02-21T07:32:35.501Z,0.50
2018-02-21T07:35:03.060Z,0.50
2018-02-21T07:37:30.630Z,0.60
2018-02-21T07:39:58.196Z,0.70
2018-02-21T07:42:26.549Z,0.80
2018-02-21T07:44:55.651Z,0.80
2018-02-21T07:47:24.915Z,0.90
2018-02-21T07:49:52.505Z,1.00
2018-02-21T07:52:20.072Z,1.20
2018-02-21T07:54:47.654Z,1.20
2018-02-21T07:57:15.243Z,1.10
2018-02-21T07:59:42.962Z,1.10
2018-02-21T08:02:10.689Z,1.10
2018-02-21T08:04:38.277Z,1.10
2018-02-21T08:07:05.940Z,1.20
2018-02-21T08:09:33.592Z,1.20
2018-02-21T08:12:01.238Z,1.20
2018-02-21T08:14:28.918Z,1.20
2018-02-21T08:16:56.584Z,1.40
2018-02-21T08:19:27.599Z,1.30
2018-02-21T08:21:55.171Z,1.30
2018-02-21T08:24:22.718Z,1.20
2018-02-21T08:26:50.302Z,1.20
2018-02-21T08:29:19.793Z,1.20
2018-02-21T08:31:47.402Z,1.30
2018-02-21T08:34:15.003Z,1.30
2018-02-21T08:36:42.762Z,1.30
2018-02-21T08:39:10.328Z,1.20
2018-02-21T08:41:37.924Z,1.30
2018-02-21T08:44:05.726Z,1.30
2018-02-21T08:46:33.292Z,1.40
2018-02-21T08:49:01.624Z,1.60
2018-02-21T08:51:29.187Z,1.60
2018-02-21T08:53:56.752Z,1.80
2018-02-21T08:56:24.320Z,1.70
2018-02-21T08:58:51.883Z,1.90
2018-02-21T09:01:19.449Z,1.80
2018-02-21T09:03:47.019Z,1.80
2018-02-21T09:06:14.587Z,1.90
2018-02-21T09:08:42.920Z,2.20
2018-02-21T09:11:10.514Z,2.20
2018-02-21T09:13:38.075Z,2.20
2018-02-21T09:16:05.695Z,2.10
2018-02-21T09:18:33.280Z,2.10
2018-02-21T09:21:00.846Z,2.10
2018-02-21T09:23:28.474Z,2.10
2018-02-21T09:25:56.037Z,2.10
2018-02-21T09:28:23.626Z,2.10
2018-02-21T09:30:51.374Z,2.20
2018-02-21T09:33:19.035Z,2.20
2018-02-21T09:35:46.673Z,2.30
2018-02-21T09:38:14.296Z,2.30
2018-02-21T09:40:41.892Z,2.30
2018-02-21T09:43:09.479Z,2.30
2018-02-21T09:45:37.102Z,2.40
2018-02-21T09:48:04.708Z,2.50
2018-02-21T09:50:32.283Z,2.70
2018-02-21T09:52:59.846Z,2.80
2018-02-21T09:55:27.410Z,3.10
2018-02-21T09:57:54.978Z,3.30
2018-02-21T10:00:22.561Z,3.40
2018-02-21T10:02:50.918Z,3.80
2018-02-21T10:05:18.606Z,3.80
2018-02-21T10:07:47.016Z,4.40
2018-02-21T10:10:14.579Z,4.30
2018-02-21T10:12:42.195Z,4.60
2018-02-21T10:15:10.725Z,4.40
2018-02-21T10:17:38.305Z,4.40
2018-02-21T10:20:06.003Z,4.50
2018-02-21T10:22:34.328Z,4.60
2018-02-21T10:25:01.931Z,4.60
2018-02-21T10:27:29.514Z,4.80
2018-02-21T10:29:57.888Z,5.50
2018-02-21T10:32:25.518Z,5.50
2018-02-21T10:34:53.089Z,6.00
2018-02-21T10:37:20.702Z,6.60
2018-02-21T10:39:48.339Z,7.70
2018-02-21T10:42:15.919Z,8.30
2018-02-21T10:44:43.513Z,9.10
2018-02-21T10:47:11.357Z,9.90
2018-02-21T10:49:39.123Z,9.80
2018-02-21T10:52:06.695Z,9.40
2018-02-21T10:54:34.456Z,9.40
2018-02-21T10:57:02.059Z,10.10
2018-02-21T10:59:30.382Z,9.00
2018-02-21T11:01:57.996Z,9.00
2018-02-21T11:04:26.749Z,8.50
2018-02-21T11:06:54.328Z,9.10
2018-02-21T11:09:21.952Z,10.70
2018-02-21T11:11:49.524Z,11.80
2018-02-21T11:14:17.188Z,12.00
2018-02-21T11:16:45.512Z,11.60
2018-02-21T11:19:13.079Z,10.40
2018-02-21T11:21:40.693Z,8.40
2018-02-21T11:24:08.264Z,9.00
2018-02-21T11:26:35.862Z,9.10
2018-02-21T11:29:04.414Z,9.60
2018-02-21T11:31:31.974Z,9.60
2018-02-21T11:33:59.565Z,9.10
2018-02-21T11:36:27.229Z,9.30
2018-02-21T11:38:54.838Z,9.10
2018-02-21T11:41:22.523Z,8.70
2018-02-21T11:43:50.103Z,8.30
2018-02-21T11:46:18.453Z,7.50
2018-02-21T11:48:46.153Z,7.50
2018-02-21T11:51:14.489Z,8.90
2018-02-21T11:53:42.048Z,8.90
2018-02-21T11:56:09.618Z,10.30
2018-02-21T11:58:37.216Z,11.80
2018-02-21T12:01:04.809Z,13.40
2018-02-21T12:03:32.396Z,14.40
2018-02-21T12:05:59.993Z,13.60
2018-02-21T12:08:28.360Z,13.60
2018-02-21T12:10:55.928Z,13.50
2018-02-21T12:13:24.298Z,11.60
2018-02-21T12:15:51.969Z,11.60
2018-02-21T12:18:20.312Z,9.70
2018-02-21T12:20:48.530Z,9.70
2018-02-21T12:23:16.870Z,9.90
2018-02-21T12:25:44.415Z,9.90
2018-02-21T12:28:12.083Z,9.80
2018-02-21T12:30:39.677Z,9.70
2018-02-21T12:33:07.396Z,10.70
2018-02-21T12:35:34.991Z,10.90
2018-02-21T12:38:02.643Z,11.70
2018-02-21T12:40:35.950Z,12.50
2018-02-21T12:43:03.506Z,13.00
2018-02-21T12:45:31.084Z,13.10
2018-02-21T12:47:58.718Z,13.40
2018-02-21T12:50:26.277Z,13.40
2018-02-21T12:52:53.836Z,13.80
2018-02-21T12:55:21.490Z,13.20
2018-02-21T12:57:49.152Z,13.30
2018-02-21T13:00:16.726Z,12.90
2018-02-21T13:02:44.342Z,11.50
2018-02-21T13:05:11.919Z,10.60
2018-02-21T13:07:39.544Z,9.80
2018-02-21T13:10:07.113Z,9.20
2018-02-21T13:12:34.726Z,8.90
2018-02-21T13:15:02.293Z,8.40
2018-02-21T13:17:29.845Z,8.40
2018-02-21T13:19:57.436Z,8.30
2018-02-21T13:22:25.016Z,8.30
2018-02-21T13:24:53.342Z,7.70
2018-02-21T13:27:21.002Z,7.70
2018-02-21T13:29:48.597Z,7.40
2018-02-21T13:32:16.163Z,7.10
2018-02-21T13:34:43.791Z,7.10
2018-02-21T13:37:11.438Z,7.20
2018-02-21T13:39:39.058Z,7.60
2018-02-21T13:42:07.379Z,7.30
2018-02-21T13:44:34.946Z,7.30
2018-02-21T13:47:02.561Z,7.20
2018-02-21T13:49:30.130Z,7.00
2018-02-21T13:51:58.445Z,9.00
2018-02-21T13:54:26.027Z,9.00
2018-02-21T13:56:53.610Z,10.40
2018-02-21T13:59:21.303Z,11.00
2018-02-21T14:01:48.896Z,11.60
2018-02-21T14:04:16.456Z,12.40
2018-02-21T14:06:44.055Z,12.60
2018-02-21T14:09:11.859Z,12.20
2018-02-21T14:11:39.667Z,11.00
2018-02-21T14:14:07.277Z,10.50
2018-02-21T14:16:34.840Z,10.10
2018-02-21T14:19:02.420Z,9.20
2018-02-21T14:21:30.092Z,9.00
2018-02-21T14:23:57.658Z,8.50
2018-02-21T14:26:25.242Z,7.90
2018-02-21T14:28:52.815Z,7.50
2018-02-21T14:31:20.375Z,6.70
2018-02-21T14:33:48.812Z,6.30
2018-02-21T14:36:16.446Z,6.30
2018-02-21T14:38:44.115Z,6.30
2018-02-21T14:41:11.710Z,6.50
2018-02-21T14:43:39.356Z,6.70
2018-02-21T14:46:06.935Z,6.80
2018-02-21T14:48:34.495Z,6.70
2018-02-21T14:51:02.236Z,6.70
2018-02-21T14:53:29.841Z,6.50
2018-02-21T14:55:57.418Z,6.20
2018-02-21T14:58:25.749Z,6.00
2018-02-21T15:00:53.315Z,6.00
2018-02-21T15:03:20.901Z,5.90
2018-02-21T15:05:48.594Z,5.90
2018-02-21T15:08:16.162Z,6.00
2018-02-21T15:10:43.756Z,5.60
2018-02-21T15:13:11.337Z,5.40
2018-02-21T15:15:38.985Z,5.30
2018-02-21T15:18:06.765Z,5.20
2018-02-21T15:20:35.119Z,5.20
2018-02-21T15:23:02.710Z,5.20
2018-02-21T15:25:30.380Z,5.00
2018-02-21T15:27:58.633Z,5.00
2018-02-21T15:30:26.250Z,4.80
2018-02-21T15:32:53.893Z,4.90
2018-02-21T15:35:21.624Z,5.00
2018-02-21T15:37:49.208Z,4.90
2018-02-21T15:40:17.550Z,4.80
2018-02-21T15:42:45.127Z,4.70
2018-02-21T15:45:12.832Z,4.80
2018-02-21T15:47:40.386Z,4.80
2018-02-21T15:50:08.725Z,4.70
2018-02-21T15:52:36.324Z,4.70
2018-02-21T15:55:04.750Z,4.70
2018-02-21T15:57:32.356Z,4.60
2018-02-21T15:59:59.977Z,4.70
2018-02-21T16:02:27.662Z,4.50
2018-02-21T16:04:55.239Z,4.50
2018-02-21T16:07:23.640Z,4.40
2018-02-21T16:09:51.228Z,4.40
2018-02-21T16:12:18.831Z,4.30
2018-02-21T16:14:46.435Z,4.40
2018-02-21T16:17:14.024Z,4.30
2018-02-21T16:19:41.605Z,4.30
2018-02-21T16:22:09.230Z,4.30
2018-02-21T16:24:37.642Z,4.10
2018-02-21T16:27:05.223Z,4.10
2018-02-21T16:29:32.860Z,4.10
2018-02-21T16:32:00.475Z,4.00
2018-02-21T16:34:28.073Z,3.80
2018-02-21T16:36:55.659Z,4.00
2018-02-21T16:39:24.057Z,4.00
2018-02-21T16:41:52.411Z,3.90
2018-02-21T16:44:20.195Z,3.90
2018-02-21T16:46:47.760Z,3.90
2018-02-21T16:49:16.155Z,3.90
2018-02-21T16:51:43.762Z,3.90
2018-02-21T16:54:32.188Z,4.00
2018-02-21T16:56:59.786Z,3.80
2018-02-21T16:59:27.343Z,3.70
2018-02-21T17:01:54.907Z,3.70
2018-02-21T17:04:24.805Z,3.70
2018-02-21T17:06:52.708Z,3.60
2018-02-21T17:09:22.540Z,3.60
2018-02-21T17:11:50.897Z,3.50
2018-02-21T17:14:18.501Z,3.50
2018-02-21T17:16:46.265Z,3.60
2018-02-21T17:19:14.062Z,3.50
2018-02-21T17:21:43.389Z,3.50
2018-02-21T17:24:10.988Z,3.50
2018-02-21T17:26:38.558Z,3.70
2018-02-21T17:29:06.130Z,3.70
2018-02-21T17:31:33.722Z,3.70
2018-02-21T17:34:01.299Z,3.70
2018-02-21T17:36:28.880Z,3.50
2018-02-21T17:38:56.447Z,3.50
2018-02-21T17:41:29.791Z,3.50
2018-02-21T17:43:57.407Z,3.60
2018-02-21T17:46:25.531Z,3.40
2018-02-21T17:48:53.098Z,3.40
2018-02-21T17:51:20.671Z,3.50
2018-02-21T17:53:48.238Z,3.40
2018-02-21T17:56:16.587Z,3.40
2018-02-21T17:58:44.169Z,3.40
2018-02-21T18:01:13.038Z,3.50
2018-02-21T18:03:40.700Z,3.60
2018-02-21T18:06:08.291Z,3.60
2018-02-21T18:08:36.026Z,3.60
2018-02-21T18:11:03.620Z,3.50
2018-02-21T18:13:34.271Z,3.60
2018-02-21T18:16:03.168Z,3.50
2018-02-21T18:18:31.233Z,3.40
2018-02-21T18:21:01.008Z,3.40
2018-02-21T18:23:29.051Z,3.20
2018-02-21T18:25:56.624Z,3.40
2018-02-21T18:28:24.250Z,3.40
2018-02-21T18:30:51.856Z,3.30
2018-02-21T18:33:19.499Z,3.40
2018-02-21T18:35:48.635Z,3.50
2018-02-21T18:38:16.347Z,3.40
2018-02-21T18:40:44.000Z,3.40
2018-02-21T18:43:11.669Z,3.40
2018-02-21T18:45:39.280Z,3.50
2018-02-21T18:48:06.890Z,3.30
2018-02-21T18:50:34.471Z,3.30
2018-02-21T18:53:02.041Z,3.40
2018-02-21T18:55:29.622Z,3.30
2018-02-21T18:57:57.242Z,3.20
2018-02-21T19:00:24.816Z,3.10
2018-02-21T19:02:52.382Z,3.10
2018-02-21T19:05:19.946Z,2.90
2018-02-21T19:07:47.521Z,2.80
2018-02-21T19:10:15.226Z,2.80
2018-02-21T19:12:42.802Z,2.80
2018-02-21T19:15:10.403Z,2.70
2018-02-21T19:17:38.092Z,2.80
2018-02-21T19:20:05.687Z,2.80
2018-02-21T19:22:33.273Z,2.90
2018-02-21T19:25:00.863Z,2.90
2018-02-21T19:27:29.216Z,3.20
2018-02-21T19:29:56.826Z,3.20
2018-02-21T19:32:24.408Z,3.30
2018-02-21T19:34:51.997Z,3.40
2018-02-21T19:37:19.593Z,3.50
2018-02-21T19:39:47.183Z,3.30
2018-02-21T19:42:14.840Z,3.20
2018-02-21T19:44:42.477Z,3.20
2018-02-21T19:47:10.061Z,3.10
2018-02-21T19:49:38.002Z,3.10
2018-02-21T19:52:06.367Z,2.90
2018-02-21T19:54:33.969Z,2.90
2018-02-21T19:57:01.554Z,2.80
2018-02-21T19:59:29.118Z,2.70
2018-02-21T20:01:56.704Z,2.60
2018-02-21T20:04:24.298Z,2.60
2018-02-21T20:06:51.926Z,2.50
2018-02-21T20:09:19.678Z,2.50
2018-02-21T20:11:47.273Z,2.40
2018-02-21T20:14:14.859Z,2.40
2018-02-21T20:16:42.532Z,2.40
2018-02-21T20:19:10.319Z,2.40
2018-02-21T20:21:37.969Z,2.50
2018-02-21T20:24:05.747Z,2.60
2018-02-21T20:26:33.383Z,2.60
2018-02-21T20:29:00.963Z,2.60
2018-02-21T20:31:28.627Z,2.60
2018-02-21T20:33:56.223Z,2.60
2018-02-21T20:36:23.790Z,2.40
2018-02-21T20:38:52.143Z,2.50
2018-02-21T20:41:19.738Z,2.40
2018-02-21T20:43:48.078Z,2.30
2018-02-21T20:46:15.690Z,2.30
2018-02-21T20:48:44.113Z,2.00
2018-02-21T20:51:11.721Z,2.00
2018-02-21T20:53:39.321Z,2.00
2018-02-21T20:56:06.882Z,2.00
2018-02-21T20:58:34.477Z,2.10
2018-02-21T21:01:02.063Z,2.30
2018-02-21T21:03:30.425Z,2.20
2018-02-21T21:05:57.992Z,2.20
2018-02-21T21:08:25.583Z,2.10
2018-02-21T21:10:53.150Z,2.20
2018-02-21T21:13:20.751Z,2.20
2018-02-21T21:15:48.333Z,2.20
2018-02-21T21:18:16.679Z,2.10
2018-02-21T21:20:44.275Z,2.00
2018-02-21T21:23:11.889Z,1.90
2018-02-21T21:25:39.463Z,2.00
2018-02-21T21:28:07.040Z,2.10
2018-02-21T21:30:34.655Z,2.20
2018-02-21T21:33:02.253Z,2.20
2018-02-21T21:35:30.129Z,2.10
2018-02-21T21:37:57.804Z,2.10
2018-02-21T21:40:25.386Z,2.00
2018-02-21T21:42:52.967Z,2.00
2018-02-21T21:45:20.686Z,2.00
2018-02-21T21:47:51.063Z,1.90
2018-02-21T21:50:18.656Z,1.90
2018-02-21T21:52:46.265Z,1.90
2018-02-21T21:55:14.632Z,1.80
2018-02-21T21:57:42.196Z,1.80
2018-02-21T22:00:10.782Z,1.70
2018-02-21T22:02:38.334Z,1.70
2018-02-21T22:05:05.904Z,1.70
2018-02-21T22:07:34.367Z,1.80
2018-02-21T22:10:01.926Z,1.80
2018-02-21T22:12:29.478Z,1.80
2018-02-21T22:14:57.049Z,1.80
2018-02-21T22:17:24.637Z,1.90
2018-02-21T22:19:52.207Z,1.90
2018-02-21T22:22:20.443Z,2.00
2018-02-21T22:24:48.004Z,2.20
2018-02-21T22:27:15.576Z,2.10
2018-02-21T22:29:43.920Z,2.10
2018-02-21T22:32:11.471Z,2.10
2018-02-21T22:34:39.059Z,1.90
2018-02-21T22:37:06.649Z,1.90
2018-02-21T22:39:35.002Z,1.80
2018-02-21T22:42:02.590Z,1.80
2018-02-21T22:44:30.922Z,1.80
2018-02-21T22:46:58.493Z,1.80
2018-02-21T22:49:26.051Z,1.70
2018-02-21T22:51:53.792Z,1.80
2018-02-21T22:54:21.418Z,1.70
2018-02-21T22:56:48.995Z,1.60
2018-02-21T22:59:17.456Z,1.50
2018-02-21T23:01:45.778Z,1.40
2018-02-21T23:04:13.373Z,1.30
2018-02-21T23:06:40.971Z,1.50
2018-02-21T23:09:08.539Z,1.40
2018-02-21T23:11:36.088Z,1.40
2018-02-21T23:14:03.665Z,1.30
2018-02-21T23:16:31.521Z,1.10
2018-02-21T23:18:59.113Z,1.20
2018-02-21T23:21:27.471Z,1.40
2018-02-21T23:23:55.038Z,1.30
2018-02-21T23:26:22.625Z,1.30
2018-02-21T23:28:50.189Z,1.40
2018-02-21T23:31:17.779Z,1.50
2018-02-21T23:33:45.358Z,1.40
2018-02-21T23:36:12.954Z,1.50
2018-02-21T23:38:40.517Z,1.40
2018-02-21T23:41:08.125Z,1.50
2018-02-21T23:43:35.696Z,1.30
2018-02-21T23:46:03.317Z,1.20
2018-02-21T23:48:30.879Z,1.10
2018-02-21T23:50:58.596Z,1.20
2018-02-21T23:53:26.376Z,1.20
2018-02-21T23:55:53.947Z,1.20
2018-02-21T23:58:21.508Z,1.10
